sensor_id;sensor_type;location;lat;lon;timestamp;P1;durP1;ratioP1;P2;durP2;ratioP2
38083;SDS011;23894;51.466;7.444;2022-08-19T00:01:05;15.35;;;13.75;;
38083;SDS011;23894;51.466;7.444;2022-08-19T00:05:07;15.48;;;13.77;;
38083;SDS011;23894;51.466;7.444;2022-08-19T00:07:10;16.00;;;14.32;;
38083;SDS011;23894;51.466;7.444;2022-08-19T00:11:13;15.68;;;13.88;;
38083;SDS011;23894;51.466;7.444;2022-08-19T00:15:16;16.15;;;13.65;;
38083;SDS011;23894;51.466;7.444;2022-08-19T00:17:18;15.32;;;13.15;;
38083;SDS011;23894;51.466;7.444;2022-08-19T00:19:20;15.55;;;13.32;;
38083;SDS011;23894;51.466;7.444;2022-08-19T00:21:25;16.02;;;14.32;;
38083;SDS011;23894;51.466;7.444;2022-08-19T00:23:30;17.10;;;15.23;;
38083;SDS011;23894;51.466;7.444;2022-08-19T00:25:34;15.70;;;13.93;;
38083;SDS011;23894;51.466;7.444;2022-08-19T00:27:36;16.15;;;13.77;;
38083;SDS011;23894;51.466;7.444;2022-08-19T00:31:38;12.93;;;11.52;;
38083;SDS011;23894;51.466;7.444;2022-08-19T00:35:39;13.93;;;11.13;;
38083;SDS011;23894;51.466;7.444;2022-08-19T00:39:43;13.88;;;11.82;;
38083;SDS011;23894;51.466;7.444;2022-08-19T00:43:56;13.02;;;11.52;;
38083;SDS011;23894;51.466;7.444;2022-08-19T00:46:01;14.80;;;12.95;;
38083;SDS011;23894;51.466;7.444;2022-08-19T00:48:04;14.40;;;13.00;;
38083;SDS011;23894;51.466;7.444;2022-08-19T00:52:08;14.90;;;11.70;;
38083;SDS011;23894;51.466;7.444;2022-08-19T00:54:15;14.23;;;12.73;;
38083;SDS011;23894;51.466;7.444;2022-08-19T00:58:19;13.82;;;12.30;;
38083;SDS011;23894;51.466;7.444;2022-08-19T01:00:24;14.73;;;12.93;;
38083;SDS011;23894;51.466;7.444;2022-08-19T01:02:26;13.55;;;12.15;;
38083;SDS011;23894;51.466;7.444;2022-08-19T01:04:27;16.40;;;12.77;;
38083;SDS011;23894;51.466;7.444;2022-08-19T01:08:28;13.73;;;12.07;;
38083;SDS011;23894;51.466;7.444;2022-08-19T01:12:31;13.60;;;11.68;;
38083;SDS011;23894;51.466;7.444;2022-08-19T01:14:32;13.63;;;11.63;;
38083;SDS011;23894;51.466;7.444;2022-08-19T01:16:34;13.02;;;11.48;;
38083;SDS011;23894;51.466;7.444;2022-08-19T01:20:37;15.15;;;12.10;;
38083;SDS011;23894;51.466;7.444;2022-08-19T01:22:44;13.00;;;11.60;;
38083;SDS011;23894;51.466;7.444;2022-08-19T01:24:50;13.55;;;11.48;;
38083;SDS011;23894;51.466;7.444;2022-08-19T01:26:51;13.55;;;11.73;;
38083;SDS011;23894;51.466;7.444;2022-08-19T01:28:54;13.73;;;11.85;;
38083;SDS011;23894;51.466;7.444;2022-08-19T01:30:57;13.10;;;11.50;;
38083;SDS011;23894;51.466;7.444;2022-08-19T01:35:00;13.32;;;11.82;;
38083;SDS011;23894;51.466;7.444;2022-08-19T01:37:05;14.13;;;12.45;;
38083;SDS011;23894;51.466;7.444;2022-08-19T01:39:12;15.40;;;12.73;;
38083;SDS011;23894;51.466;7.444;2022-08-19T01:41:16;13.82;;;11.95;;
38083;SDS011;23894;51.466;7.444;2022-08-19T01:43:18;14.15;;;11.68;;
38083;SDS011;23894;51.466;7.444;2022-08-19T01:47:21;12.10;;;10.80;;
38083;SDS011;23894;51.466;7.444;2022-08-19T06:31:50;26.13;;;23.13;;
38083;SDS011;23894;51.466;7.444;2022-08-19T06:33:53;36.30;;;26.83;;
38083;SDS011;23894;51.466;7.444;2022-08-19T06:37:55;27.40;;;22.58;;
38083;SDS011;23894;51.466;7.444;2022-08-19T06:42:00;25.60;;;22.03;;
38083;SDS011;23894;51.466;7.444;2022-08-19T06:44:03;26.88;;;23.25;;
38083;SDS011;23894;51.466;7.444;2022-08-19T06:46:08;27.55;;;24.52;;
38083;SDS011;23894;51.466;7.444;2022-08-19T06:48:13;28.33;;;25.30;;
38083;SDS011;23894;51.466;7.444;2022-08-19T06:52:14;28.57;;;23.47;;
38083;SDS011;23894;51.466;7.444;2022-08-19T06:54:16;26.42;;;22.33;;
38083;SDS011;23894;51.466;7.444;2022-08-19T06:56:19;26.60;;;23.67;;
38083;SDS011;23894;51.466;7.444;2022-08-19T06:58:24;26.73;;;23.63;;
38083;SDS011;23894;51.466;7.444;2022-08-19T07:02:26;27.87;;;22.90;;
38083;SDS011;23894;51.466;7.444;2022-08-19T07:04:27;22.98;;;20.45;;
38083;SDS011;23894;51.466;7.444;2022-08-19T07:06:31;33.55;;;25.33;;
38083;SDS011;23894;51.466;7.444;2022-08-19T07:08:33;31.05;;;23.58;;
38083;SDS011;23894;51.466;7.444;2022-08-19T07:10:36;27.23;;;22.52;;
38083;SDS011;23894;51.466;7.444;2022-08-19T07:14:37;26.57;;;20.60;;
38083;SDS011;23894;51.466;7.444;2022-08-19T07:16:38;29.38;;;23.60;;
38083;SDS011;23894;51.466;7.444;2022-08-19T07:20:40;23.87;;;20.67;;
38083;SDS011;23894;51.466;7.444;2022-08-19T07:22:42;28.35;;;22.13;;
38083;SDS011;23894;51.466;7.444;2022-08-19T07:24:45;27.20;;;20.50;;
38083;SDS011;23894;51.466;7.444;2022-08-19T07:28:47;24.20;;;19.70;;
38083;SDS011;23894;51.466;7.444;2022-08-19T07:30:48;27.05;;;19.75;;
38083;SDS011;23894;51.466;7.444;2022-08-19T07:32:50;24.98;;;19.38;;
38083;SDS011;23894;51.466;7.444;2022-08-19T07:34:52;26.73;;;21.08;;
38083;SDS011;23894;51.466;7.444;2022-08-19T07:38:54;25.42;;;19.17;;
38083;SDS011;23894;51.466;7.444;2022-08-19T07:42:55;26.23;;;18.97;;
38083;SDS011;23894;51.466;7.444;2022-08-19T07:46:56;27.87;;;20.87;;
38083;SDS011;23894;51.466;7.444;2022-08-19T07:48:58;23.67;;;18.77;;
38083;SDS011;23894;51.466;7.444;2022-08-19T07:51:01;24.70;;;19.00;;
38083;SDS011;23894;51.466;7.444;2022-08-19T07:53:08;23.40;;;18.20;;
38083;SDS011;23894;51.466;7.444;2022-08-19T07:55:09;25.90;;;21.35;;
38083;SDS011;23894;51.466;7.444;2022-08-19T07:57:11;24.88;;;19.02;;
38083;SDS011;23894;51.466;7.444;2022-08-19T08:01:15;25.92;;;20.95;;
38083;SDS011;23894;51.466;7.444;2022-08-19T08:03:21;24.23;;;21.00;;
38083;SDS011;23894;51.466;7.444;2022-08-19T08:05:45;27.23;;;18.13;;
38083;SDS011;23894;51.466;7.444;2022-08-19T08:08:05;30.13;;;21.42;;
38083;SDS011;23894;51.466;7.444;2022-08-19T08:10:25;28.67;;;20.13;;
38083;SDS011;23894;51.466;7.444;2022-08-19T08:12:27;25.20;;;21.33;;
38083;SDS011;23894;51.466;7.444;2022-08-19T08:14:34;26.75;;;20.40;;
38083;SDS011;23894;51.466;7.444;2022-08-19T08:16:38;21.55;;;17.77;;
38083;SDS011;23894;51.466;7.444;2022-08-19T08:18:39;23.65;;;18.83;;
38083;SDS011;23894;51.466;7.444;2022-08-19T08:20:42;23.65;;;19.00;;
38083;SDS011;23894;51.466;7.444;2022-08-19T08:22:43;24.67;;;19.73;;
38083;SDS011;23894;51.466;7.444;2022-08-19T08:25:04;24.50;;;17.45;;
38083;SDS011;23894;51.466;7.444;2022-08-19T08:27:06;26.40;;;18.98;;
38083;SDS011;23894;51.466;7.444;2022-08-19T08:29:07;23.25;;;18.55;;
38083;SDS011;23894;51.466;7.444;2022-08-19T08:31:09;23.42;;;18.73;;
38083;SDS011;23894;51.466;7.444;2022-08-19T08:33:10;23.40;;;18.77;;
38083;SDS011;23894;51.466;7.444;2022-08-19T08:35:12;22.42;;;17.15;;
38083;SDS011;23894;51.466;7.444;2022-08-19T08:37:16;20.35;;;15.95;;
38083;SDS011;23894;51.466;7.444;2022-08-19T08:39:18;27.08;;;17.80;;
38083;SDS011;23894;51.466;7.444;2022-08-19T08:43:28;21.05;;;14.07;;
38083;SDS011;23894;51.466;7.444;2022-08-19T08:45:35;19.42;;;13.65;;
38083;SDS011;23894;51.466;7.444;2022-08-19T08:47:43;19.17;;;15.27;;
38083;SDS011;23894;51.466;7.444;2022-08-19T08:49:50;17.25;;;13.43;;
38083;SDS011;23894;51.466;7.444;2022-08-19T08:52:06;16.92;;;12.70;;
38083;SDS011;23894;51.466;7.444;2022-08-19T08:54:45;23.40;;;15.65;;
38083;SDS011;23894;51.466;7.444;2022-08-19T08:56:48;20.85;;;13.23;;
38083;SDS011;23894;51.466;7.444;2022-08-19T08:59:00;18.50;;;12.55;;
38083;SDS011;23894;51.466;7.444;2022-08-19T09:01:10;16.02;;;13.60;;
38083;SDS011;23894;51.466;7.444;2022-08-19T09:03:26;17.63;;;14.15;;
38083;SDS011;23894;51.466;7.444;2022-08-19T09:05:42;18.45;;;15.98;;
38083;SDS011;23894;51.466;7.444;2022-08-19T09:08:06;19.70;;;13.88;;
38083;SDS011;23894;51.466;7.444;2022-08-19T09:10:20;23.15;;;17.38;;
38083;SDS011;23894;51.466;7.444;2022-08-19T09:16:41;22.73;;;20.23;;
38083;SDS011;23894;51.466;7.444;2022-08-19T09:20:43;18.65;;;16.10;;
38083;SDS011;23894;51.466;7.444;2022-08-19T09:22:47;19.35;;;17.35;;
38083;SDS011;23894;51.466;7.444;2022-08-19T09:24:49;20.58;;;15.88;;
38083;SDS011;23894;51.466;7.444;2022-08-19T09:26:52;21.02;;;16.40;;
38083;SDS011;23894;51.466;7.444;2022-08-19T09:28:53;23.05;;;17.00;;
38083;SDS011;23894;51.466;7.444;2022-08-19T09:30:54;21.13;;;17.27;;
38083;SDS011;23894;51.466;7.444;2022-08-19T09:32:55;18.58;;;14.68;;
38083;SDS011;23894;51.466;7.444;2022-08-19T09:34:55;15.45;;;12.90;;
38083;SDS011;23894;51.466;7.444;2022-08-19T09:36:58;12.95;;;11.50;;
38083;SDS011;23894;51.466;7.444;2022-08-19T09:38:59;14.95;;;11.90;;
38083;SDS011;23894;51.466;7.444;2022-08-19T09:41:04;16.50;;;13.95;;
